Time;durP1;ratioP1;P1;durP2;ratioP2;P2;SDS_P1;SDS_P2;PMS_P1;PMS_P2;Temp;Humidity;BMP_temperature;BMP_pressure;BME280_temperature;BME280_humidity;BME280_pressure;Samples;Min_cycle;Max_cycle;Signal;HPM_P1;HPM_P2
2021/10/30 00:02:01;;;;;;;5.75;2.47;;;;;;;;;;5031696;28;20119;-90
2021/10/30 00:04:26;;;;;;;4.95;2.42;;;;;;;;;;5031854;28;20036;-90
2021/10/30 00:06:52;;;;;;;3.17;2.10;;;;;;;;;;5065436;28;20025;-90
2021/10/30 00:09:17;;;;;;;4.18;2.28;;;;;;;;;;5065411;28;20025;-90
2021/10/30 00:11:42;;;;;;;4.72;2.25;;;;;;;;;;5032118;28;20021;-90
2021/10/30 00:14:07;;;;;;;4.30;2.58;;;;;;;;;;5065516;28;20029;-90
2021/10/30 00:16:33;;;;;;;7.18;3.45;;;;;;;;;;5031810;28;20044;-90
2021/10/30 00:18:58;;;;;;;6.57;2.70;;;;;;;;;;5065317;28;20071;-90
2021/10/30 00:21:23;;;;;;;4.32;2.05;;;;;;;;;;5029748;28;20033;-90
2021/10/30 00:23:48;;;;;;;4.20;2.60;;;;;;;;;;5028919;28;20105;-90
2021/10/30 00:26:14;;;;;;;6.20;2.08;;;;;;;;;;5031912;28;20025;-90
2021/10/30 00:28:39;;;;;;;6.93;2.85;;;;;;;;;;5031637;28;20693;-90
2021/10/30 00:31:04;;;;;;;4.10;2.20;;;;;;;;;;5048276;28;20022;-90
2021/10/30 00:33:29;;;;;;;3.63;2.15;;;;;;;;;;5031850;28;20021;-90
2021/10/30 00:35:55;;;;;;;3.92;2.25;;;;;;;;;;5035172;28;20108;-90
2021/10/30 00:38:20;;;;;;;4.47;2.58;;;;;;;;;;5028575;28;20045;-90
2021/10/30 00:40:45;;;;;;;4.68;2.13;;;;;;;;;;5033511;28;20009;-90
2021/10/30 00:43:10;;;;;;;4.90;2.47;;;;;;;;;;5035575;28;20021;-90
2021/10/30 00:45:36;;;;;;;6.90;2.42;;;;;;;;;;5035178;28;20044;-90
2021/10/30 00:48:01;;;;;;;8.43;2.58;;;;;;;;;;5035467;28;20017;-90
2021/10/30 00:50:26;;;;;;;5.95;2.60;;;;;;;;;;5068708;28;20017;-90
2021/10/30 00:52:52;;;;;;;5.95;2.33;;;;;;;;;;5035620;28;20424;-90
2021/10/30 00:55:20;;;;;;;4.13;2.35;;;;;;;;;;5035010;28;20024;-90
2021/10/30 00:57:46;;;;;;;4.65;2.50;;;;;;;;;;5034293;28;20483;-90
2021/10/30 01:00:11;;;;;;;4.22;2.60;;;;;;;;;;5053739;28;20014;-90
2021/10/30 01:02:37;;;;;;;7.10;2.78;;;;;;;;;;5067556;28;20025;-90
2021/10/30 01:05:03;;;;;;;5.40;2.70;;;;;;;;;;5034694;28;20100;-90
2021/10/30 01:07:31;;;;;;;9.48;2.83;;;;;;;;;;5033384;28;20315;-90
2021/10/30 01:09:56;;;;;;;4.55;2.30;;;;;;;;;;5066704;28;20021;-90
2021/10/30 01:12:21;;;;;;;9.57;2.25;;;;;;;;;;5033253;28;20024;-90
2021/10/30 01:14:47;;;;;;;5.00;2.53;;;;;;;;;;5033747;28;20021;-90
2021/10/30 01:17:12;;;;;;;5.13;2.80;;;;;;;;;;5066906;28;20021;-90
2021/10/30 01:19:37;;;;;;;10.55;2.63;;;;;;;;;;5033311;28;20128;-90
2021/10/30 01:22:02;;;;;;;5.72;2.95;;;;;;;;;;5022154;28;20435;-90
2021/10/30 01:24:28;;;;;;;7.32;2.60;;;;;;;;;;5030406;28;20021;-90
2021/10/30 01:26:53;;;;;;;4.75;2.80;;;;;;;;;;5034782;28;20108;-90
2021/10/30 01:29:18;;;;;;;8.85;2.63;;;;;;;;;;5034492;28;20027;-90
2021/10/30 01:31:44;;;;;;;5.90;2.67;;;;;;;;;;5068066;28;20021;-90
2021/10/30 01:34:09;;;;;;;5.30;2.97;;;;;;;;;;5034785;28;20017;-90
2021/10/30 01:36:35;;;;;;;5.68;2.58;;;;;;;;;;5034510;28;20010;-90
2021/10/30 01:39:01;;;;;;;5.45;2.90;;;;;;;;;;5034156;28;20021;-89
2021/10/30 01:41:27;;;;;;;7.25;3.40;;;;;;;;;;5034684;28;20389;-90
2021/10/30 01:43:52;;;;;;;7.05;3.20;;;;;;;;;;5034187;28;20033;-90
2021/10/30 01:46:18;;;;;;;5.97;2.63;;;;;;;;;;5034264;28;20064;-89
2021/10/30 01:48:43;;;;;;;5.85;3.13;;;;;;;;;;5020155;28;20034;-90
2021/10/30 01:51:09;;;;;;;4.93;2.95;;;;;;;;;;5034207;28;20025;-90
2021/10/30 01:53:34;;;;;;;7.40;3.05;;;;;;;;;;5034064;28;20010;-90
2021/10/30 01:55:59;;;;;;;5.65;3.15;;;;;;;;;;5034430;28;20484;-90
2021/10/30 01:58:24;;;;;;;4.97;2.97;;;;;;;;;;5032309;28;20026;-90
2021/10/30 02:00:51;;;;;;;5.43;3.08;;;;;;;;;;5022029;28;20017;-90
2021/10/30 02:03:17;;;;;;;5.85;3.28;;;;;;;;;;5034159;28;20100;-90
2021/10/30 02:05:42;;;;;;;4.90;3.08;;;;;;;;;;5034088;28;20103;-89
2021/10/30 02:08:07;;;;;;;5.90;3.20;;;;;;;;;;5067456;28;20021;-90
2021/10/30 02:10:33;;;;;;;6.30;3.20;;;;;;;;;;5033825;28;20017;-90
2021/10/30 02:12:58;;;;;;;4.82;2.88;;;;;;;;;;5034947;28;20010;-90
2021/10/30 02:15:23;;;;;;;7.85;2.92;;;;;;;;;;5066802;28;20565;-89
2021/10/30 02:17:49;;;;;;;6.40;3.25;;;;;;;;;;5033718;28;20025;-90
2021/10/30 02:20:14;;;;;;;6.30;3.33;;;;;;;;;;5033708;28;20033;-90
2021/10/30 02:22:39;;;;;;;8.65;3.40;;;;;;;;;;5033673;28;20017;-90
2021/10/30 02:25:05;;;;;;;6.70;3.70;;;;;;;;;;5033433;28;20026;-90
2021/10/30 02:27:31;;;;;;;8.70;3.60;;;;;;;;;;5033285;28;20025;-90
2021/10/30 02:29:56;;;;;;;6.78;3.33;;;;;;;;;;5033731;28;20124;-90
2021/10/30 02:32:21;;;;;;;5.63;3.25;;;;;;;;;;5066964;28;20144;-90
2021/10/30 02:34:46;;;;;;;7.85;3.33;;;;;;;;;;5066921;28;20013;-90
2021/10/30 02:37:12;;;;;;;5.32;3.10;;;;;;;;;;5033008;28;20132;-90
2021/10/30 02:39:37;;;;;;;5.75;2.92;;;;;;;;;;5028425;28;20067;-90
2021/10/30 02:42:02;;;;;;;5.18;3.10;;;;;;;;;;5024241;28;20029;-90
2021/10/30 02:44:27;;;;;;;6.50;3.10;;;;;;;;;;5066550;28;20037;-90
2021/10/30 02:46:53;;;;;;;6.22;2.75;;;;;;;;;;5033184;28;20060;-90
2021/10/30 02:49:18;;;;;;;7.72;3.60;;;;;;;;;;5033223;28;20397;-90
2021/10/30 02:51:43;;;;;;;6.70;3.25;;;;;;;;;;5066039;28;20704;-90
2021/10/30 02:54:08;;;;;;;8.25;3.03;;;;;;;;;;5066334;28;20053;-90
2021/10/30 02:56:34;;;;;;;6.50;3.05;;;;;;;;;;5032980;28;20025;-90
2021/10/30 02:58:59;;;;;;;7.32;3.22;;;;;;;;;;5032535;28;20035;-90
2021/10/30 03:01:25;;;;;;;5.57;3.13;;;;;;;;;;5033369;28;20099;-90
2021/10/30 03:03:50;;;;;;;6.00;3.33;;;;;;;;;;5032811;28;20574;-90
2021/10/30 03:06:16;;;;;;;9.63;3.47;;;;;;;;;;5032969;28;20822;-90
2021/10/30 03:08:41;;;;;;;4.85;3.17;;;;;;;;;;5032631;28;20029;-90
2021/10/30 03:11:06;;;;;;;4.43;2.92;;;;;;;;;;5033003;28;20037;-90
2021/10/30 03:13:32;;;;;;;5.13;3.00;;;;;;;;;;5065852;28;20040;-90
2021/10/30 03:15:57;;;;;;;7.13;2.97;;;;;;;;;;5032599;28;20384;-90
2021/10/30 03:18:23;;;;;;;8.30;3.30;;;;;;;;;;5032451;28;20159;-90
2021/10/30 03:20:48;;;;;;;5.88;3.40;;;;;;;;;;5032465;28;20518;-90
2021/10/30 03:23:14;;;;;;;6.07;3.38;;;;;;;;;;5032787;28;20048;-90
2021/10/30 03:25:39;;;;;;;5.60;3.30;;;;;;;;;;5065950;28;20017;-90
2021/10/30 03:28:04;;;;;;;6.97;3.35;;;;;;;;;;5032399;28;20014;-90
2021/10/30 03:30:30;;;;;;;6.10;3.15;;;;;;;;;;5033585;28;20040;-90
2021/10/30 03:32:55;;;;;;;6.00;3.55;;;;;;;;;;5032516;28;20074;-90
2021/10/30 03:35:20;;;;;;;6.70;3.13;;;;;;;;;;5065771;28;20419;-89
2021/10/30 03:37:46;;;;;;;8.73;3.45;;;;;;;;;;5032229;28;20029;-89
2021/10/30 03:40:12;;;;;;;6.70;3.72;;;;;;;;;;5033365;28;20029;-90
2021/10/30 03:42:37;;;;;;;6.25;3.25;;;;;;;;;;5032162;28;20473;-90
2021/10/30 03:45:04;;;;;;;5.28;3.03;;;;;;;;;;5033470;28;20021;-90
2021/10/30 03:47:29;;;;;;;4.82;2.60;;;;;;;;;;5065618;28;20083;-89
2021/10/30 03:49:54;;;;;;;7.00;3.92;;;;;;;;;;5065567;28;20045;-90
2021/10/30 03:52:19;;;;;;;5.90;3.13;;;;;;;;;;5065464;28;20097;-90
2021/10/30 03:54:45;;;;;;;13.02;3.65;;;;;;;;;;5033727;28;20030;-90
2021/10/30 03:57:10;;;;;;;8.65;3.22;;;;;;;;;;5065659;28;20025;-90
2021/10/30 03:59:35;;;;;;;6.63;3.08;;;;;;;;;;5032458;28;20025;-90
2021/10/30 04:02:02;;;;;;;6.88;3.30;;;;;;;;;;5032161;28;20017;-90
2021/10/30 04:04:28;;;;;;;6.55;2.67;;;;;;;;;;5032526;28;20083;-90
2021/10/30 04:06:53;;;;;;;8.85;3.00;;;;;;;;;;5032066;28;20033;-90
2021/10/30 04:09:19;;;;;;;6.90;3.00;;;;;;;;;;5032104;28;20056;-90
2021/10/30 04:11:44;;;;;;;5.25;2.92;;;;;;;;;;5036113;28;20017;-90
2021/10/30 04:14:09;;;;;;;5.55;2.97;;;;;;;;;;5069684;28;20465;-91
2021/10/30 04:16:35;;;;;;;4.82;2.92;;;;;;;;;;5035998;28;20053;-90
2021/10/30 04:19:00;;;;;;;5.82;3.00;;;;;;;;;;5035946;28;20044;-91
2021/10/30 04:21:26;;;;;;;6.13;2.75;;;;;;;;;;5036063;28;20397;-90
2021/10/30 04:23:51;;;;;;;6.25;2.80;;;;;;;;;;5036191;28;20049;-90
2021/10/30 04:26:17;;;;;;;5.05;2.80;;;;;;;;;;5036032;28;20025;-90
2021/10/30 04:28:42;;;;;;;10.00;2.67;;;;;;;;;;5035575;28;20022;-89
2021/10/30 04:31:09;;;;;;;4.10;2.70;;;;;;;;;;5035895;28;20018;-89
2021/10/30 04:33:36;;;;;;;5.80;2.63;;;;;;;;;;5035963;28;20026;-89
2021/10/30 04:36:03;;;;;;;5.78;2.78;;;;;;;;;;5032502;28;20030;-89
2021/10/30 04:38:28;;;;;;;7.50;2.40;;;;;;;;;;5032462;28;20018;-90
2021/10/30 04:40:54;;;;;;;5.65;2.95;;;;;;;;;;5035678;28;20072;-89
2021/10/30 04:43:19;;;;;;;5.93;2.42;;;;;;;;;;5035919;28;20025;-90
2021/10/30 04:45:44;;;;;;;6.65;2.70;;;;;;;;;;5035833;28;20066;-89
2021/10/30 04:48:10;;;;;;;4.13;2.30;;;;;;;;;;5035537;28;20067;-90
2021/10/30 04:50:35;;;;;;;15.43;2.90;;;;;;;;;;5035830;28;20021;-89
2021/10/30 04:53:01;;;;;;;5.35;2.97;;;;;;;;;;5035642;28;20021;-89
2021/10/30 04:55:26;;;;;;;6.55;2.60;;;;;;;;;;5035197;28;20526;-89
2021/10/30 04:57:51;;;;;;;5.60;2.47;;;;;;;;;;5035514;28;20024;-89
2021/10/30 05:00:16;;;;;;;7.32;2.40;;;;;;;;;;5034838;28;20393;-89
2021/10/30 05:02:42;;;;;;;4.75;2.17;;;;;;;;;;5035551;28;20049;-89
2021/10/30 05:05:07;;;;;;;5.25;2.60;;;;;;;;;;5035112;28;20056;-89
2021/10/30 05:07:32;;;;;;;5.30;2.40;;;;;;;;;;5035327;28;20071;-89
2021/10/30 05:09:58;;;;;;;5.82;2.38;;;;;;;;;;5035249;28;20084;-89
2021/10/30 05:12:23;;;;;;;4.65;2.53;;;;;;;;;;5034783;28;20025;-89
2021/10/30 05:14:48;;;;;;;5.25;2.67;;;;;;;;;;5035000;28;20021;-89
2021/10/30 05:17:13;;;;;;;6.00;2.75;;;;;;;;;;5034980;28;20017;-89
2021/10/30 05:19:38;;;;;;;5.28;2.55;;;;;;;;;;5034961;28;20017;-89
2021/10/30 05:22:04;;;;;;;4.18;2.58;;;;;;;;;;5034677;28;20033;-89
2021/10/30 05:24:29;;;;;;;6.30;2.70;;;;;;;;;;5068289;28;20022;-89
2021/10/30 05:26:54;;;;;;;11.23;2.40;;;;;;;;;;5034666;28;20476;-89
2021/10/30 05:29:19;;;;;;;3.90;2.15;;;;;;;;;;5034602;28;20021;-89
2021/10/30 05:31:45;;;;;;;5.55;2.70;;;;;;;;;;5035082;28;20104;-89
2021/10/30 05:34:10;;;;;;;7.15;2.72;;;;;;;;;;5034650;28;20013;-89
2021/10/30 05:36:37;;;;;;;8.27;2.80;;;;;;;;;;5034801;28;20016;-89
2021/10/30 05:39:05;;;;;;;6.15;2.70;;;;;;;;;;5067887;28;20025;-89
2021/10/30 05:41:30;;;;;;;5.55;2.30;;;;;;;;;;5034580;28;20026;-89
2021/10/30 05:43:55;;;;;;;4.40;2.38;;;;;;;;;;5067795;28;20032;-89
2021/10/30 05:46:21;;;;;;;5.78;2.90;;;;;;;;;;5034678;28;20461;-89
2021/10/30 05:48:46;;;;;;;4.40;2.60;;;;;;;;;;5021166;28;20473;-89
2021/10/30 05:51:12;;;;;;;5.57;2.47;;;;;;;;;;5034284;28;20017;-89
2021/10/30 05:53:37;;;;;;;6.25;2.38;;;;;;;;;;5035570;28;20021;-89
2021/10/30 05:56:02;;;;;;;4.88;2.45;;;;;;;;;;5035535;28;20026;-89
2021/10/30 05:58:28;;;;;;;5.90;2.45;;;;;;;;;;5033857;28;20022;-89
2021/10/30 06:00:53;;;;;;;4.32;2.60;;;;;;;;;;5034108;28;20099;-89
2021/10/30 06:03:18;;;;;;;4.90;2.75;;;;;;;;;;5034225;28;20462;-89
2021/10/30 06:05:44;;;;;;;4.78;2.50;;;;;;;;;;5067593;28;20017;-89
2021/10/30 06:08:09;;;;;;;6.15;2.30;;;;;;;;;;5035310;28;20021;-89
2021/10/30 06:10:35;;;;;;;6.50;2.55;;;;;;;;;;5033854;28;20028;-89
2021/10/30 06:13:00;;;;;;;6.63;2.53;;;;;;;;;;5067416;28;20022;-89
2021/10/30 06:15:25;;;;;;;6.78;2.42;;;;;;;;;;5066962;28;20521;-89
2021/10/30 06:17:50;;;;;;;5.63;2.10;;;;;;;;;;5034278;28;20350;-89
2021/10/30 06:20:15;;;;;;;3.75;2.22;;;;;;;;;;5066857;28;20041;-89
2021/10/30 06:22:44;;;;;;;7.18;2.50;;;;;;;;;;5066811;28;20059;-89
2021/10/30 06:25:10;;;;;;;5.38;2.35;;;;;;;;;;5033693;28;20021;-89
2021/10/30 06:27:36;;;;;;;6.05;2.88;;;;;;;;;;5033622;28;20112;-89
2021/10/30 06:30:02;;;;;;;7.28;2.40;;;;;;;;;;5066341;28;20429;-89
2021/10/30 06:32:27;;;;;;;3.70;1.88;;;;;;;;;;5033311;28;20102;-89
2021/10/30 06:34:52;;;;;;;7.95;3.22;;;;;;;;;;5066190;28;20040;-89
2021/10/30 06:37:17;;;;;;;5.53;2.17;;;;;;;;;;5035314;28;20017;-89
2021/10/30 06:39:43;;;;;;;6.63;2.35;;;;;;;;;;5037944;28;20032;-89
2021/10/30 06:42:08;;;;;;;4.65;2.30;;;;;;;;;;5042642;28;20021;-89
2021/10/30 06:44:33;;;;;;;6.25;2.60;;;;;;;;;;5056627;28;20024;-89
2021/10/30 06:46:58;;;;;;;5.15;2.63;;;;;;;;;;5027516;28;20112;-89
2021/10/30 06:49:25;;;;;;;6.95;2.53;;;;;;;;;;5066382;28;20567;-89
2021/10/30 06:51:51;;;;;;;7.93;2.38;;;;;;;;;;5032609;28;20028;-88
2021/10/30 06:54:16;;;;;;;7.05;2.50;;;;;;;;;;5027787;28;20033;-89
2021/10/30 06:56:42;;;;;;;8.18;2.38;;;;;;;;;;5029241;28;20033;-89
2021/10/30 06:59:07;;;;;;;7.30;2.40;;;;;;;;;;5045512;28;20029;-88
2021/10/30 07:01:35;;;;;;;7.40;2.70;;;;;;;;;;5032766;28;20112;-89
2021/10/30 07:04:00;;;;;;;5.13;2.33;;;;;;;;;;5034328;28;20025;-89
2021/10/30 07:06:25;;;;;;;4.40;2.28;;;;;;;;;;5033984;28;20385;-89
2021/10/30 07:08:50;;;;;;;3.28;1.80;;;;;;;;;;5038439;28;20026;-89
2021/10/30 07:11:16;;;;;;;4.85;2.40;;;;;;;;;;5037133;28;20029;-88
2021/10/30 07:13:41;;;;;;;2.13;1.40;;;;;;;;;;5032613;28;20025;-89
2021/10/30 07:16:06;;;;;;;3.00;2.00;;;;;;;;;;5034541;28;20017;-89
2021/10/30 07:18:32;;;;;;;4.68;2.20;;;;;;;;;;5039376;28;20132;-88
2021/10/30 07:20:57;;;;;;;4.90;2.40;;;;;;;;;;5039810;28;20043;-88
2021/10/30 07:23:22;;;;;;;5.22;2.22;;;;;;;;;;5032671;28;20022;-89
2021/10/30 07:25:48;;;;;;;21.40;2.22;;;;;;;;;;5022446;28;20465;-88
2021/10/30 07:28:14;;;;;;;3.20;1.90;;;;;;;;;;5032786;28;20020;-89
2021/10/30 07:30:39;;;;;;;5.82;2.10;;;;;;;;;;5065846;28;20543;-89
2021/10/30 07:33:04;;;;;;;3.28;1.27;;;;;;;;;;5031844;28;20017;-89
2021/10/30 07:35:29;;;;;;;4.93;1.90;;;;;;;;;;5042787;28;20067;-89
2021/10/30 07:37:59;;;;;;;3.83;1.90;;;;;;;;;;5037103;28;20028;-88
2021/10/30 07:40:26;;;;;;;3.15;1.40;;;;;;;;;;5040834;28;20407;-89
2021/10/30 07:42:52;;;;;;;4.22;2.30;;;;;;;;;;5022778;28;20040;-89
2021/10/30 07:45:17;;;;;;;3.78;1.77;;;;;;;;;;5033175;28;20025;-89
2021/10/30 07:47:42;;;;;;;6.30;2.40;;;;;;;;;;5038442;28;20104;-89
2021/10/30 07:50:07;;;;;;;4.43;1.52;;;;;;;;;;5030370;28;20032;-89
2021/10/30 07:52:33;;;;;;;4.20;1.80;;;;;;;;;;5028636;28;20108;-90
2021/10/30 07:54:58;;;;;;;3.42;1.80;;;;;;;;;;5031598;28;20017;-89
2021/10/30 07:57:23;;;;;;;9.05;2.08;;;;;;;;;;5029871;28;20596;-89
2021/10/30 07:59:50;;;;;;;3.58;2.05;;;;;;;;;;5028984;28;20036;-90
2021/10/30 08:02:16;;;;;;;5.15;2.05;;;;;;;;;;5028930;28;20048;-89
2021/10/30 08:04:41;;;;;;;4.57;2.00;;;;;;;;;;5023099;28;20021;-89
2021/10/30 08:07:07;;;;;;;3.38;1.92;;;;;;;;;;5066566;28;20026;-90
2021/10/30 08:09:32;;;;;;;3.20;1.67;;;;;;;;;;5030777;28;20112;-90
2021/10/30 08:11:57;;;;;;;5.38;2.15;;;;;;;;;;5031215;28;20029;-90
2021/10/30 08:14:23;;;;;;;4.95;2.47;;;;;;;;;;5027567;28;20038;-89
2021/10/30 08:16:48;;;;;;;3.90;2.13;;;;;;;;;;5031874;28;20366;-90
2021/10/30 08:19:14;;;;;;;3.55;2.00;;;;;;;;;;5026519;28;20366;-89
2021/10/30 08:21:39;;;;;;;4.13;1.67;;;;;;;;;;5031199;28;20120;-89
2021/10/30 08:24:05;;;;;;;4.60;1.92;;;;;;;;;;5061143;28;20029;-90
2021/10/30 08:26:30;;;;;;;1.48;0.68;;;;;;;;;;5037615;28;20028;-89
2021/10/30 08:28:56;;;;;;;2.92;1.60;;;;;;;;;;5031288;28;20029;-89
2021/10/30 08:31:22;;;;;;;5.53;2.30;;;;;;;;;;5029363;28;20090;-89
2021/10/30 08:33:47;;;;;;;2.22;1.40;;;;;;;;;;5026806;28;20368;-89
2021/10/30 08:36:13;;;;;;;4.70;2.10;;;;;;;;;;5027837;28;20017;-89
2021/10/30 08:38:38;;;;;;;5.10;2.00;;;;;;;;;;5024317;28;20018;-88
2021/10/30 08:41:04;;;;;;;4.97;1.52;;;;;;;;;;5027824;28;20079;-89
2021/10/30 08:43:29;;;;;;;3.47;1.58;;;;;;;;;;5030074;28;21322;-89
2021/10/30 08:45:55;;;;;;;3.42;1.55;;;;;;;;;;5048183;28;20033;-90
2021/10/30 08:48:21;;;;;;;3.90;1.27;;;;;;;;;;5031564;28;20068;-89
2021/10/30 08:50:47;;;;;;;3.63;1.80;;;;;;;;;;5031622;28;20065;-90
2021/10/30 08:53:12;;;;;;;4.47;2.30;;;;;;;;;;5030112;28;20028;-89
2021/10/30 08:55:38;;;;;;;3.55;1.70;;;;;;;;;;5043267;28;20377;-90
2021/10/30 08:58:08;;;;;;;9.27;1.92;;;;;;;;;;5032433;28;20026;-89
2021/10/30 09:00:36;;;;;;;9.00;1.85;;;;;;;;;;5035868;28;20097;-90
2021/10/30 09:03:03;;;;;;;4.30;1.95;;;;;;;;;;5060265;28;20022;-89
2021/10/30 09:05:30;;;;;;;3.50;1.85;;;;;;;;;;5034802;28;20021;-89
2021/10/30 09:07:56;;;;;;;9.85;2.30;;;;;;;;;;5034100;28;20100;-90
2021/10/30 09:10:23;;;;;;;5.45;2.38;;;;;;;;;;5066909;28;20033;-89
2021/10/30 09:12:49;;;;;;;3.80;1.90;;;;;;;;;;5030894;28;20384;-89
2021/10/30 09:15:15;;;;;;;8.32;2.35;;;;;;;;;;5030100;28;20142;-89
2021/10/30 09:17:41;;;;;;;3.38;1.73;;;;;;;;;;5034376;28;20564;-90
2021/10/30 09:20:08;;;;;;;5.55;2.17;;;;;;;;;;5043467;28;20064;-90
2021/10/30 09:22:33;;;;;;;2.88;1.60;;;;;;;;;;5036128;28;20075;-90
2021/10/30 09:25:03;;;;;;;3.80;2.50;;;;;;;;;;5062762;28;20409;-90
2021/10/30 09:27:48;;;;;;;2.95;2.08;;;;;;;;;;5051506;28;20017;-89
2021/10/30 09:30:14;;;;;;;3.90;1.67;;;;;;;;;;5068175;28;20029;-90
2021/10/30 09:32:40;;;;;;;4.97;2.30;;;;;;;;;;5033918;28;20022;-89
2021/10/30 09:35:06;;;;;;;4.63;2.08;;;;;;;;;;5032703;28;20014;-90
2021/10/30 09:37:34;;;;;;;6.38;2.22;;;;;;;;;;5034535;28;20037;-89
2021/10/30 09:40:26;;;;;;;6.35;2.10;;;;;;;;;;5034834;28;20032;-90
2021/10/30 09:42:52;;;;;;;3.08;1.60;;;;;;;;;;5031143;28;20060;-90
2021/10/30 09:45:17;;;;;;;4.38;1.65;;;;;;;;;;5036862;28;20037;-90
2021/10/30 09:47:44;;;;;;;3.65;1.88;;;;;;;;;;5028928;28;20018;-89
2021/10/30 09:50:23;;;;;;;1.98;0.77;;;;;;;;;;5038407;28;20013;-90
2021/10/30 09:52:49;;;;;;;2.38;0.90;;;;;;;;;;5043049;28;20017;-90
2021/10/30 09:55:21;;;;;;;3.47;1.38;;;;;;;;;;5033978;28;20694;-90
2021/10/30 09:57:47;;;;;;;2.78;1.63;;;;;;;;;;5033833;28;20017;-89
2021/10/30 10:00:12;;;;;;;4.60;1.60;;;;;;;;;;5022237;28;20037;-90
2021/10/30 10:02:38;;;;;;;3.15;1.60;;;;;;;;;;5029962;28;20489;-89
2021/10/30 10:05:04;;;;;;;4.07;1.90;;;;;;;;;;5032921;28;20025;-89
2021/10/30 10:07:30;;;;;;;5.97;2.30;;;;;;;;;;5056496;28;20025;-89
2021/10/30 10:09:56;;;;;;;4.47;2.22;;;;;;;;;;5075295;28;20029;-89
2021/10/30 10:12:22;;;;;;;3.03;1.50;;;;;;;;;;5067915;28;20105;-86
2021/10/30 10:14:48;;;;;;;5.88;1.83;;;;;;;;;;5032298;28;20418;-89
2021/10/30 10:17:13;;;;;;;3.95;1.90;;;;;;;;;;5029058;28;20385;-88
2021/10/30 10:19:39;;;;;;;3.38;1.92;;;;;;;;;;5058446;28;20022;-89
2021/10/30 10:22:05;;;;;;;6.03;1.80;;;;;;;;;;5033024;28;20037;-88
2021/10/30 10:24:31;;;;;;;2.20;1.25;;;;;;;;;;5034759;28;20438;-88
2021/10/30 10:27:01;;;;;;;3.90;1.80;;;;;;;;;;5058323;28;20109;-88
2021/10/30 10:29:34;;;;;;;2.78;1.58;;;;;;;;;;5032761;28;20024;-88
2021/10/30 10:32:19;;;;;;;3.97;1.90;;;;;;;;;;5027769;28;20036;-88
2021/10/30 10:34:45;;;;;;;2.35;1.25;;;;;;;;;;5031601;28;20116;-88
2021/10/30 10:37:10;;;;;;;2.83;1.30;;;;;;;;;;5028914;28;20045;-88
2021/10/30 10:39:36;;;;;;;2.45;1.40;;;;;;;;;;5032444;28;20499;-88
2021/10/30 10:42:03;;;;;;;4.65;1.45;;;;;;;;;;5029159;28;20025;-87
2021/10/30 10:44:28;;;;;;;1.80;0.90;;;;;;;;;;5038171;28;20021;-88
2021/10/30 10:46:54;;;;;;;4.43;1.58;;;;;;;;;;5058932;28;20025;-88
2021/10/30 10:49:42;;;;;;;3.88;1.50;;;;;;;;;;5031670;28;20045;-88
2021/10/30 10:52:30;;;;;;;4.20;1.65;;;;;;;;;;5032958;28;20017;-88
2021/10/30 10:54:54;;;;;;;4.30;1.27;;;;;;;;;;5030270;28;20477;-88
2021/10/30 10:57:23;;;;;;;2.38;1.45;;;;;;;;;;5035909;28;20033;-89
2021/10/30 10:59:58;;;;;;;4.63;1.20;;;;;;;;;;5032123;28;20108;-89
2021/10/30 11:02:27;;;;;;;2.47;1.13;;;;;;;;;;5024020;28;20030;-88
2021/10/30 11:05:07;;;;;;;1.33;0.93;;;;;;;;;;5032825;28;20033;-89
2021/10/30 11:07:33;;;;;;;2.72;1.30;;;;;;;;;;5022303;28;20017;-88
2021/10/30 11:10:02;;;;;;;2.45;1.45;;;;;;;;;;5033387;28;20168;-88
2021/10/30 11:12:28;;;;;;;3.22;1.17;;;;;;;;;;5029491;28;20059;-88
2021/10/30 11:15:03;;;;;;;2.15;1.08;;;;;;;;;;5032317;28;20523;-89
2021/10/30 11:17:33;;;;;;;3.20;1.17;;;;;;;;;;5028382;28;20021;-89
2021/10/30 11:20:08;;;;;;;2.63;1.05;;;;;;;;;;5028069;28;20469;-88
2021/10/30 11:22:33;;;;;;;1.70;1.00;;;;;;;;;;5029911;28;20021;-88
2021/10/30 11:25:01;;;;;;;1.42;0.68;;;;;;;;;;5032216;28;20576;-89
2021/10/30 11:27:26;;;;;;;1.75;1.10;;;;;;;;;;5031076;28;20037;-88
2021/10/30 11:29:52;;;;;;;3.20;1.33;;;;;;;;;;5027560;28;20032;-89
2021/10/30 11:32:18;;;;;;;1.95;0.95;;;;;;;;;;5042017;28;20112;-88
2021/10/30 11:34:57;;;;;;;4.65;0.70;;;;;;;;;;5055239;28;20021;-89
2021/10/30 11:37:23;;;;;;;1.92;0.77;;;;;;;;;;5055777;28;20097;-88
2021/10/30 11:39:48;;;;;;;3.53;1.25;;;;;;;;;;5063948;28;20041;-92
2021/10/30 11:42:13;;;;;;;0.60;0.32;;;;;;;;;;5032049;28;20030;-93
2021/10/30 11:44:52;;;;;;;2.65;0.90;;;;;;;;;;5049455;28;20036;-91
2021/10/30 11:47:21;;;;;;;1.40;0.98;;;;;;;;;;5064376;28;20032;-91
2021/10/30 11:49:48;;;;;;;1.23;0.63;;;;;;;;;;5037234;28;20071;-92
2021/10/30 11:52:13;;;;;;;4.25;1.02;;;;;;;;;;5064965;28;20022;-91
2021/10/30 11:54:38;;;;;;;0.52;0.30;;;;;;;;;;5032748;28;20427;-91
2021/10/30 11:57:04;;;;;;;1.30;0.80;;;;;;;;;;5032402;28;20021;-91
2021/10/30 11:59:29;;;;;;;3.60;1.30;;;;;;;;;;5025430;28;20112;-91
2021/10/30 12:01:55;;;;;;;4.05;0.75;;;;;;;;;;5032737;28;20106;-92
2021/10/30 12:04:21;;;;;;;1.30;0.70;;;;;;;;;;5065876;28;20029;-91
2021/10/30 12:06:50;;;;;;;4.60;0.88;;;;;;;;;;5033665;28;20022;-91
2021/10/30 12:09:16;;;;;;;5.72;0.88;;;;;;;;;;5065133;28;20440;-91
2021/10/30 12:11:42;;;;;;;2.35;0.77;;;;;;;;;;5038009;28;20022;-91
2021/10/30 12:14:08;;;;;;;1.88;1.00;;;;;;;;;;5032751;28;20029;-91
2021/10/30 12:16:34;;;;;;;1.25;0.90;;;;;;;;;;5032529;28;20091;-91
2021/10/30 12:19:01;;;;;;;4.65;1.25;;;;;;;;;;5032541;28;20547;-91
2021/10/30 12:21:36;;;;;;;5.22;1.10;;;;;;;;;;5068579;28;20122;-92
2021/10/30 12:24:03;;;;;;;3.05;0.73;;;;;;;;;;5027875;28;20075;-91
2021/10/30 12:26:29;;;;;;;1.45;0.70;;;;;;;;;;5032648;28;20044;-91
2021/10/30 12:29:09;;;;;;;1.80;0.80;;;;;;;;;;5062036;28;20124;-91
2021/10/30 12:31:35;;;;;;;2.25;0.93;;;;;;;;;;5034420;28;20053;-91
2021/10/30 12:34:00;;;;;;;1.60;0.90;;;;;;;;;;5066760;28;20056;-91
2021/10/30 12:36:27;;;;;;;1.25;0.70;;;;;;;;;;5025214;28;20013;-91
2021/10/30 12:38:53;;;;;;;1.80;0.90;;;;;;;;;;5032279;28;20072;-91
2021/10/30 12:41:20;;;;;;;1.45;0.60;;;;;;;;;;5030995;28;20378;-92
2021/10/30 12:43:48;;;;;;;0.73;0.50;;;;;;;;;;5019816;28;20017;-91
2021/10/30 12:46:14;;;;;;;3.42;0.77;;;;;;;;;;5049194;28;20036;-91
2021/10/30 12:48:43;;;;;;;2.05;0.90;;;;;;;;;;5035446;28;20022;-91
2021/10/30 12:51:13;;;;;;;5.18;0.68;;;;;;;;;;5069942;28;20013;-91
2021/10/30 12:53:38;;;;;;;0.80;0.60;;;;;;;;;;5038707;28;20013;-91
2021/10/30 12:56:03;;;;;;;1.88;0.73;;;;;;;;;;5036363;28;20048;-91
2021/10/30 12:58:39;;;;;;;0.98;0.60;;;;;;;;;;5036986;28;20026;-91
2021/10/30 13:01:05;;;;;;;3.58;0.70;;;;;;;;;;5045365;28;20477;-91
2021/10/30 13:03:32;;;;;;;1.17;0.60;;;;;;;;;;5035956;28;20028;-91
2021/10/30 13:05:57;;;;;;;1.02;0.73;;;;;;;;;;5034182;28;20014;-91
2021/10/30 13:08:23;;;;;;;1.50;0.70;;;;;;;;;;5039053;28;20464;-90
2021/10/30 13:10:48;;;;;;;1.42;0.70;;;;;;;;;;5035506;28;20461;-91
2021/10/30 13:13:14;;;;;;;1.55;0.55;;;;;;;;;;5036185;28;20022;-91
2021/10/30 13:15:39;;;;;;;2.05;1.08;;;;;;;;;;5041876;28;20491;-91
2021/10/30 13:18:04;;;;;;;2.90;1.00;;;;;;;;;;5038907;28;20032;-91
2021/10/30 13:20:30;;;;;;;1.42;0.70;;;;;;;;;;5061720;28;20033;-91
2021/10/30 13:22:55;;;;;;;1.20;0.70;;;;;;;;;;5040891;28;20091;-91
2021/10/30 13:25:20;;;;;;;1.02;0.73;;;;;;;;;;5035598;28;20088;-91
2021/10/30 13:27:45;;;;;;;2.10;0.70;;;;;;;;;;5030158;28;20116;-91
2021/10/30 13:30:11;;;;;;;1.63;0.80;;;;;;;;;;5068736;28;20112;-91
2021/10/30 13:32:37;;;;;;;1.25;0.75;;;;;;;;;;5067942;28;20101;-91
2021/10/30 13:35:02;;;;;;;4.10;0.80;;;;;;;;;;5035252;28;20013;-91
2021/10/30 13:37:28;;;;;;;1.85;0.90;;;;;;;;;;5035211;28;20079;-91
2021/10/30 13:39:53;;;;;;;1.17;0.50;;;;;;;;;;5032003;28;20022;-91
2021/10/30 13:42:18;;;;;;;1.38;0.80;;;;;;;;;;5027983;28;20483;-91
2021/10/30 13:44:44;;;;;;;1.15;0.85;;;;;;;;;;5035659;28;20025;-91
2021/10/30 13:47:09;;;;;;;3.45;0.90;;;;;;;;;;5041508;28;20020;-91
2021/10/30 13:49:34;;;;;;;1.75;0.80;;;;;;;;;;5043383;28;20152;-91
2021/10/30 13:51:59;;;;;;;2.42;0.85;;;;;;;;;;5041975;28;20056;-90
2021/10/30 13:54:25;;;;;;;2.60;0.60;;;;;;;;;;5037344;28;20022;-91
2021/10/30 13:56:50;;;;;;;1.40;0.60;;;;;;;;;;5045486;28;20025;-91
2021/10/30 13:59:15;;;;;;;3.88;0.50;;;;;;;;;;5030997;28;20075;-90
2021/10/30 14:01:41;;;;;;;1.08;0.60;;;;;;;;;;5027068;28;20199;-91
2021/10/30 14:04:06;;;;;;;0.90;0.60;;;;;;;;;;5037914;28;20026;-91
2021/10/30 14:06:32;;;;;;;1.25;0.70;;;;;;;;;;5045369;28;20032;-91
2021/10/30 14:08:57;;;;;;;0.70;0.50;;;;;;;;;;5036017;28;20493;-91
2021/10/30 14:11:23;;;;;;;0.70;0.47;;;;;;;;;;5035395;28;20408;-91
2021/10/30 14:13:48;;;;;;;1.55;0.50;;;;;;;;;;5059334;28;20080;-91
2021/10/30 14:16:14;;;;;;;7.10;0.70;;;;;;;;;;5065848;28;20029;-91
2021/10/30 14:18:41;;;;;;;4.85;0.60;;;;;;;;;;5034482;28;20014;-91
2021/10/30 14:21:06;;;;;;;1.05;0.50;;;;;;;;;;5034426;28;20539;-91
2021/10/30 14:23:33;;;;;;;0.68;0.50;;;;;;;;;;5034492;28;20021;-91
2021/10/30 14:25:58;;;;;;;0.77;0.40;;;;;;;;;;5034000;28;20013;-91
2021/10/30 14:28:24;;;;;;;1.02;0.43;;;;;;;;;;5031648;28;20526;-91
2021/10/30 14:30:50;;;;;;;0.45;0.40;;;;;;;;;;5064208;28;20033;-91
2021/10/30 14:33:15;;;;;;;0.63;0.43;;;;;;;;;;5033914;28;20023;-91
2021/10/30 14:35:40;;;;;;;0.63;0.35;;;;;;;;;;5033975;28;20021;-90
2021/10/30 14:38:06;;;;;;;0.93;0.60;;;;;;;;;;5034325;28;20020;-91